createdAt,value
2019-02-09T00:00:15.940Z,143569.33
2019-02-09T00:05:12.081Z,143588.09
2019-02-09T00:10:08.529Z,143570.48
2019-02-09T00:15:06.588Z,143582.22
2019-02-09T00:20:28.926Z,143578.72
2019-02-09T00:25:24.917Z,143562.27
2019-02-09T00:30:24.285Z,143550.58
2019-02-09T00:35:20.988Z,143489.59
2019-02-09T00:40:20.685Z,143436.84
2019-02-09T00:45:18.271Z,143372.41
2019-02-09T00:50:15.761Z,143360.69
2019-02-09T00:55:15.361Z,143354.81
2019-02-09T01:00:35.791Z,143365.34
2019-02-09T01:05:40.875Z,143371.22
2019-02-09T01:10:37.299Z,143351.31
2019-02-09T01:15:33.197Z,143351.31
2019-02-09T01:20:29.175Z,143344.30
2019-02-09T01:25:25.161Z,143323.19
2019-02-09T01:30:25.221Z,143309.16
2019-02-09T01:35:21.559Z,143273.94
2019-02-09T01:40:19.349Z,143257.55
2019-02-09T01:45:17.935Z,143254.03
2019-02-09T01:50:16.523Z,143222.42
2019-02-09T01:55:12.908Z,143209.55
2019-02-09T02:00:14.392Z,143197.81
2019-02-09T02:05:11.981Z,143203.69
2019-02-09T02:10:11.707Z,143194.31
2019-02-09T02:15:13.750Z,143183.75
2019-02-09T02:20:13.457Z,143193.11
2019-02-09T02:25:09.389Z,143172.08
2019-02-09T02:30:09.078Z,143177.94
2019-02-09T02:35:07.673Z,143180.25
2019-02-09T02:40:06.783Z,143174.42
2019-02-09T02:45:05.754Z,143170.88
2019-02-09T02:50:03.045Z,143175.58
2019-02-09T02:54:58.928Z,143169.72
2019-02-09T02:59:54.817Z,143166.22
2019-02-09T03:04:50.693Z,143168.56
2019-02-09T03:09:46.585Z,143160.34
2019-02-09T03:14:42.489Z,143141.62
2019-02-09T03:19:38.376Z,143140.47
2019-02-09T03:24:34.960Z,143135.77
2019-02-09T03:29:30.806Z,143124.05
2019-02-09T03:34:26.695Z,143124.05
2019-02-09T03:39:22.580Z,143127.59
2019-02-09T03:44:18.463Z,143139.27
2019-02-09T03:49:14.348Z,143138.11
2019-02-09T03:54:10.902Z,143149.83
2019-02-09T03:59:06.745Z,143176.73
2019-02-09T04:04:03.229Z,143158.00
2019-02-09T04:08:59.147Z,143152.14
2019-02-09T04:13:55.033Z,143150.98
2019-02-09T04:18:50.920Z,143166.22
2019-02-09T04:23:53.729Z,143193.11
2019-02-09T04:28:49.618Z,143197.81
2019-02-09T04:33:45.502Z,143194.31
2019-02-09T04:38:41.432Z,143206.03
2019-02-09T04:43:37.331Z,143216.56
2019-02-09T04:48:33.229Z,143216.56
2019-02-09T04:53:30.693Z,143230.59
2019-02-09T04:58:26.791Z,143241.16
2019-02-09T05:03:22.848Z,143258.70
2019-02-09T05:08:18.772Z,143281.00
2019-02-09T05:13:14.666Z,143302.09
2019-02-09T05:18:10.548Z,143323.19
2019-02-09T05:23:06.465Z,143326.70
2019-02-09T05:28:02.347Z,143334.92
2019-02-09T05:33:00.543Z,143343.09
2019-02-09T05:37:56.160Z,143353.66
2019-02-09T05:42:52.044Z,143347.80
2019-02-09T05:47:48.380Z,143357.17
2019-02-09T05:52:44.572Z,143365.34
2019-02-09T05:57:40.557Z,143363.03
2019-02-09T06:02:36.440Z,143372.41
2019-02-09T06:07:32.323Z,143368.91
2019-02-09T06:12:28.207Z,143385.30
2019-02-09T06:17:24.096Z,143358.33
2019-02-09T06:22:19.979Z,143358.33
2019-02-09T06:27:15.874Z,143359.53
2019-02-09T06:32:13.050Z,143339.59
2019-02-09T06:37:08.945Z,143326.70
2019-02-09T06:42:04.853Z,143320.84
2019-02-09T06:47:00.749Z,143323.19
2019-02-09T06:51:57.049Z,143311.47
2019-02-09T06:56:55.371Z,143327.91
2019-02-09T07:01:51.363Z,143327.91
2019-02-09T07:06:47.264Z,143332.56
2019-02-09T07:11:43.157Z,143337.22
2019-02-09T07:16:39.069Z,143360.69
2019-02-09T07:21:34.955Z,143367.70
2019-02-09T07:26:30.843Z,143367.70
2019-02-09T07:31:26.749Z,143367.70
2019-02-09T07:36:22.608Z,143378.28
2019-02-09T07:41:18.493Z,143384.09
2019-02-09T07:46:14.476Z,143404.05
2019-02-09T07:51:10.364Z,143399.34
2019-02-09T07:56:07.317Z,143409.91
2019-02-09T08:01:03.479Z,143428.66
2019-02-09T08:05:59.368Z,143422.80
2019-02-09T08:10:55.620Z,143354.81
2019-02-09T08:15:51.604Z,143381.78
2019-02-09T08:20:47.493Z,143421.59
2019-02-09T08:25:43.480Z,143469.69
2019-02-09T08:30:47.518Z,143456.78
2019-02-09T08:35:43.513Z,143438.03
2019-02-09T08:40:39.535Z,143443.91
2019-02-09T08:45:35.474Z,143447.41
2019-02-09T08:50:37.568Z,143461.45
2019-02-09T08:55:33.450Z,143472.03
2019-02-09T09:00:34.144Z,143468.47
2019-02-09T09:05:30.038Z,143448.56
2019-02-09T09:10:30.013Z,143430.97
2019-02-09T09:15:38.576Z,143438.03
2019-02-09T09:20:40.118Z,143432.17
2019-02-09T09:25:36.103Z,143474.34
2019-02-09T09:30:31.992Z,143498.97
2019-02-09T09:35:28.081Z,143517.72
2019-02-09T09:40:39.058Z,143498.97
2019-02-09T09:45:36.851Z,143536.48
2019-02-09T09:50:36.441Z,143500.13
2019-02-09T09:55:33.386Z,143558.75
2019-02-09T10:00:29.478Z,143590.41
2019-02-09T10:05:25.561Z,143510.70
2019-02-09T10:10:21.585Z,143566.98
2019-02-09T10:15:25.414Z,143564.63
2019-02-09T10:20:23.104Z,143584.53
2019-02-09T10:25:19.392Z,143592.77
2019-02-09T10:30:21.344Z,143591.61
2019-02-09T10:35:18.044Z,143571.66
2019-02-09T10:40:17.140Z,143511.86
2019-02-09T10:45:19.591Z,143452.08
2019-02-09T10:50:24.876Z,143462.66
2019-02-09T10:55:20.899Z,143552.89
2019-02-09T11:00:32.450Z,143610.38
2019-02-09T11:05:28.643Z,143705.36
2019-02-09T11:10:24.838Z,143688.95
2019-02-09T11:15:21.835Z,143679.56
2019-02-09T11:20:19.332Z,143717.11
2019-02-09T11:25:24.759Z,143686.59
2019-02-09T11:30:26.576Z,143681.87
2019-02-09T11:35:22.668Z,143706.52
2019-02-09T11:40:21.663Z,143706.52
2019-02-09T11:45:22.435Z,143728.80
2019-02-09T11:50:18.539Z,143775.78
2019-02-09T11:55:16.556Z,143787.53
2019-02-09T12:00:19.344Z,143774.63
2019-02-09T12:05:15.346Z,143785.16
2019-02-09T12:10:16.869Z,143768.75
2019-02-09T12:15:37.302Z,143758.20
2019-02-09T12:20:33.295Z,143739.44
2019-02-09T12:25:32.208Z,143772.27
2019-02-09T12:30:33.130Z,143751.19
2019-02-09T12:35:29.120Z,143718.27
2019-02-09T12:40:29.803Z,143705.36
2019-02-09T12:45:27.927Z,143686.59
2019-02-09T12:50:25.450Z,143703.00
2019-02-09T12:55:21.522Z,143731.16
2019-02-09T13:00:20.520Z,143799.27
2019-02-09T13:05:16.517Z,143801.63
2019-02-09T13:10:14.506Z,143827.44
2019-02-09T13:15:13.500Z,143820.41
2019-02-09T13:20:13.021Z,143826.23
2019-02-09T13:25:09.712Z,143825.08
2019-02-09T13:30:09.427Z,143848.58
2019-02-09T13:35:46.974Z,143862.63
2019-02-09T13:40:42.864Z,143843.84
2019-02-09T13:46:20.396Z,143839.19
2019-02-09T13:51:16.288Z,143832.11
2019-02-09T13:56:12.174Z,143719.41
2019-02-09T14:01:08.168Z,143681.87
2019-02-09T14:06:08.281Z,143588.09
2019-02-09T14:11:02.083Z,143584.53
2019-02-09T14:15:57.971Z,143518.88
2019-02-09T14:20:53.865Z,143583.37
2019-02-09T14:25:49.760Z,143615.03
2019-02-09T14:30:45.747Z,143599.78
2019-02-09T14:35:41.840Z,143609.17
2019-02-09T14:40:37.843Z,143634.97
2019-02-09T14:46:15.384Z,143627.94
2019-02-09T14:51:11.272Z,143656.08
2019-02-09T14:56:07.158Z,143650.22
2019-02-09T15:01:44.734Z,143700.64
2019-02-09T15:06:40.713Z,143705.36
2019-02-09T15:11:36.608Z,143674.84
2019-02-09T15:16:32.697Z,143672.48
2019-02-09T15:21:28.597Z,143667.83
2019-02-09T15:26:24.473Z,143695.97
2019-02-09T15:31:20.358Z,143693.62
2019-02-09T15:36:16.244Z,143677.22
2019-02-09T15:41:12.130Z,143672.48
2019-02-09T15:46:08.018Z,143653.72
2019-02-09T15:51:04.106Z,143660.80
2019-02-09T15:56:00.005Z,143679.56
2019-02-09T16:00:55.891Z,143667.83
2019-02-09T16:05:51.780Z,143620.91
2019-02-09T16:10:47.673Z,143595.13
2019-02-09T16:15:44.111Z,143552.89
2019-02-09T16:20:40.525Z,143508.34
2019-02-09T16:25:37.005Z,143491.94
2019-02-09T16:30:32.868Z,143472.03
2019-02-09T16:36:10.461Z,143455.59
2019-02-09T16:41:06.348Z,143449.72
2019-02-09T16:46:02.231Z,143440.34
2019-02-09T16:50:58.117Z,143419.28
2019-02-09T16:55:54.008Z,143395.83
2019-02-09T17:00:49.897Z,143374.72
2019-02-09T17:05:45.779Z,143346.59
2019-02-09T17:10:41.899Z,143338.42
2019-02-09T17:15:37.786Z,143327.91
2019-02-09T17:20:33.809Z,143323.19
2019-02-09T17:25:29.702Z,143334.92
2019-02-09T17:31:07.499Z,143318.53
2019-02-09T17:36:45.004Z,143367.70
2019-02-09T17:41:40.893Z,143365.34
2019-02-09T17:46:36.780Z,143354.81
2019-02-09T17:51:33.414Z,143358.33
2019-02-09T17:56:29.265Z,143367.70
2019-02-09T18:01:25.159Z,143347.80
2019-02-09T18:06:21.047Z,143318.53
2019-02-09T18:11:16.959Z,143306.80
2019-02-09T18:16:12.948Z,143311.47
2019-02-09T18:21:08.941Z,143291.52
2019-02-09T18:26:04.799Z,143302.09
2019-02-09T18:31:00.691Z,143307.95
2019-02-09T18:36:16.443Z,143325.55
2019-02-09T18:41:12.337Z,143344.30
2019-02-09T18:46:08.320Z,143355.97
2019-02-09T18:51:04.303Z,143388.81
2019-02-09T18:56:00.850Z,143407.56
2019-02-09T19:00:56.710Z,143416.94
2019-02-09T19:05:52.706Z,143419.28
2019-02-09T19:10:48.621Z,143409.91
2019-02-09T19:15:44.704Z,143407.56
2019-02-09T19:21:00.465Z,143391.16
2019-02-09T19:25:57.564Z,143378.28
2019-02-09T19:30:54.138Z,143358.33
2019-02-09T19:35:50.042Z,143353.66
2019-02-09T19:40:45.950Z,143333.72
2019-02-09T19:45:41.846Z,143337.22
2019-02-09T19:50:37.738Z,143350.16
2019-02-09T19:55:55.402Z,143388.81
2019-02-09T20:00:51.287Z,143412.22
2019-02-09T20:05:47.196Z,143430.97
2019-02-09T20:10:43.098Z,143438.03
2019-02-09T20:16:21.108Z,143428.66
2019-02-09T20:26:42.248Z,143416.94
2019-02-09T20:31:39.318Z,143401.69
2019-02-09T20:41:38.958Z,143445.06
2019-02-09T20:46:34.956Z,143450.92
2019-02-09T20:51:30.863Z,143462.66
2019-02-09T20:56:26.757Z,143463.81
2019-02-09T21:01:22.790Z,143461.45
2019-02-09T21:06:26.345Z,143469.69
2019-02-09T21:11:22.333Z,143457.94
2019-02-09T21:16:18.392Z,143452.08
2019-02-09T21:21:14.371Z,143463.81
2019-02-09T21:26:10.374Z,143457.94
2019-02-09T21:31:06.382Z,143460.30
2019-02-09T21:36:22.149Z,143459.09
2019-02-09T21:41:18.074Z,143452.08
2019-02-09T21:46:13.968Z,143454.44
2019-02-09T21:51:09.970Z,143456.78
2019-02-09T21:56:05.869Z,143453.28
2019-02-09T22:01:01.946Z,143459.09
2019-02-09T22:05:57.843Z,143453.28
2019-02-09T22:10:53.797Z,143454.44
2019-02-09T22:15:49.698Z,143449.72
2019-02-09T22:20:52.491Z,143440.34
2019-02-09T22:25:43.406Z,143440.34
2019-02-09T22:30:39.336Z,143422.80
2019-02-09T22:35:35.899Z,143439.19
2019-02-09T22:41:13.574Z,143436.84
2019-02-09T22:46:09.478Z,143446.22
2019-02-09T22:51:05.487Z,143439.19
2019-02-09T22:56:01.499Z,143433.33
2019-02-09T23:01:39.395Z,143421.59
2019-02-09T23:06:57.050Z,143430.97
2019-02-09T23:11:52.947Z,143420.44
2019-02-09T23:16:49.059Z,143418.09
2019-02-09T23:21:44.962Z,143408.72
2019-02-09T23:26:40.856Z,143388.81
2019-02-09T23:31:36.764Z,143400.53
2019-02-09T23:36:32.769Z,143384.09
2019-02-09T23:41:28.739Z,143373.56
2019-02-09T23:46:24.651Z,143372.41
2019-02-09T23:51:20.663Z,143384.09
2019-02-09T23:56:16.822Z,143393.47
